Time;durP1;ratioP1;P1;durP2;ratioP2;P2;SDS_P1;SDS_P2;PMS_P1;PMS_P2;Temp;Humidity;BMP_temperature;BMP_pressure;BME280_temperature;BME280_humidity;BME280_pressure;Samples;Min_cycle;Max_cycle;Signal;HPM_P1;HPM_P2
2021/03/26 00:01:11;;;;;;;110.32;71.40;;;;;;;5.18;68.36;100976.37;1687541;82;25851;-76
2021/03/26 00:03:41;;;;;;;119.47;70.80;;;;;;;5.14;68.42;100980.97;1705459;82;26343;-76
2021/03/26 00:06:15;;;;;;;109.33;68.60;;;;;;;5.11;68.54;100977.32;1729176;82;25740;-76
2021/03/26 00:08:42;;;;;;;107.45;68.90;;;;;;;5.07;68.59;100975.44;1733131;82;25759;-77
2021/03/26 00:11:09;;;;;;;111.32;67.67;;;;;;;5.07;68.70;100978.03;1735437;80;25784;-78
2021/03/26 00:13:36;;;;;;;105.47;65.83;;;;;;;5.07;68.70;100975.44;1699097;83;25827;-76
2021/03/26 00:16:04;;;;;;;114.85;67.87;;;;;;;5.06;68.74;100979.42;1744243;80;25774;-76
2021/03/26 00:18:31;;;;;;;105.75;66.97;;;;;;;5.05;68.73;100981.20;1747793;80;25710;-76
2021/03/26 00:20:58;;;;;;;107.70;66.75;;;;;;;5.08;68.82;100981.44;1750503;80;25913;-76
2021/03/26 00:23:24;;;;;;;104.83;66.10;;;;;;;5.14;68.96;100982.27;1747219;80;25761;-75
2021/03/26 00:25:51;;;;;;;104.50;66.97;;;;;;;5.16;68.83;100978.28;1746001;80;25772;-76
2021/03/26 00:28:17;;;;;;;111.45;70.87;;;;;;;5.15;68.80;100970.95;1714593;81;25774;-76
2021/03/26 00:30:43;;;;;;;107.20;69.32;;;;;;;5.14;68.82;100975.80;1716272;81;25770;-76
2021/03/26 00:33:10;;;;;;;115.70;70.35;;;;;;;5.16;68.90;100974.39;1696011;83;25769;-76
2021/03/26 00:35:37;;;;;;;110.57;68.00;;;;;;;5.07;68.79;100975.88;1695208;83;25850;-76
2021/03/26 00:38:05;;;;;;;99.55;66.33;;;;;;;5.02;69.01;100977.98;1700358;82;25810;-76
2021/03/26 00:40:32;;;;;;;113.57;67.00;;;;;;;5.03;69.08;100977.88;1694316;83;26522;-76
2021/03/26 00:42:58;;;;;;;113.08;71.82;;;;;;;4.95;69.11;100967.27;1725315;82;26782;-76
2021/03/26 00:45:30;;;;;;;103.55;66.33;;;;;;;4.96;69.25;100969.37;1725898;82;25870;-76
2021/03/26 00:47:57;;;;;;;107.37;66.33;;;;;;;4.94;69.38;100968.22;1729659;81;26444;-76
2021/03/26 00:50:35;;;;;;;111.60;67.70;;;;;;;4.94;69.46;100972.09;1721085;80;26117;-76
2021/03/26 00:53:07;;;;;;;108.87;68.52;;;;;;;4.93;69.50;100973.02;1748786;80;25614;-76
2021/03/26 00:55:34;;;;;;;113.12;67.75;;;;;;;4.89;69.49;100968.55;1750807;80;25798;-76
2021/03/26 00:58:01;;;;;;;118.95;70.95;;;;;;;4.86;69.51;100970.55;1748470;80;25695;-76
2021/03/26 01:00:29;;;;;;;116.88;68.72;;;;;;;4.83;69.62;100970.30;1749203;80;25768;-76
2021/03/26 01:02:56;;;;;;;107.37;63.38;;;;;;;4.84;69.70;100971.12;1746488;80;25849;-76
2021/03/26 01:05:30;;;;;;;107.70;63.13;;;;;;;4.83;69.78;100974.19;1734155;80;25887;-76
2021/03/26 01:07:56;;;;;;;110.22;63.78;;;;;;;4.85;69.81;100974.05;1708610;82;25803;-76
2021/03/26 01:10:28;;;;;;;109.07;65.78;;;;;;;4.87;69.82;100967.00;1736054;80;25810;-76
2021/03/26 01:12:55;;;;;;;111.65;66.60;;;;;;;4.86;69.75;100963.59;1727908;80;25839;-76
2021/03/26 01:15:26;;;;;;;114.22;69.75;;;;;;;4.86;69.79;100959.71;1714865;81;25934;-76
2021/03/26 01:17:54;;;;;;;112.50;69.40;;;;;;;4.89;69.78;100964.66;1714770;81;27364;-75
2021/03/26 01:20:25;;;;;;;106.95;66.07;;;;;;;4.93;69.87;100968.31;1685387;83;25824;-75
2021/03/26 01:22:52;;;;;;;109.90;67.53;;;;;;;4.95;69.83;100965.15;1744754;80;25859;-75
2021/03/26 01:25:38;;;;;;;117.10;68.30;;;;;;;4.92;69.83;100970.56;1721959;80;25634;-75
2021/03/26 01:28:10;;;;;;;114.37;68.20;;;;;;;4.93;69.92;100965.25;1716147;81;25741;-76
2021/03/26 01:30:36;;;;;;;113.65;68.90;;;;;;;4.84;69.76;100960.28;1725294;81;26597;-76
2021/03/26 01:33:04;;;;;;;114.00;69.87;;;;;;;4.83;70.01;100968.19;1711119;81;26571;-76
2021/03/26 01:35:30;;;;;;;116.20;69.82;;;;;;;4.84;70.06;100960.76;1725751;81;25750;-76
2021/03/26 01:37:57;;;;;;;111.68;68.02;;;;;;;4.84;70.07;100963.35;1693660;83;25889;-76
2021/03/26 01:40:29;;;;;;;108.83;64.65;;;;;;;4.86;70.12;100966.66;1700322;81;25812;-76
2021/03/26 01:43:12;;;;;;;112.65;66.62;;;;;;;4.84;70.10;100968.53;1717866;80;26743;-76
2021/03/26 01:45:40;;;;;;;109.30;66.15;;;;;;;4.82;70.18;100965.22;1744110;80;26494;-76
2021/03/26 01:48:10;;;;;;;112.75;67.20;;;;;;;4.77;70.15;100964.73;1742836;80;25841;-76
2021/03/26 01:50:38;;;;;;;108.67;65.05;;;;;;;4.76;70.26;100964.38;1718444;81;25881;-77
2021/03/26 01:53:07;;;;;;;104.75;65.50;;;;;;;4.77;70.34;100975.08;1723157;80;26372;-77
2021/03/26 01:55:43;;;;;;;113.12;65.10;;;;;;;4.77;70.40;100973.31;1750462;80;25885;-76
2021/03/26 01:58:14;;;;;;;111.85;65.47;;;;;;;4.79;70.34;100970.16;1747168;80;25712;-76
2021/03/26 02:00:54;;;;;;;108.97;65.55;;;;;;;4.79;70.37;100970.62;1749821;80;26486;-74
2021/03/26 02:03:29;;;;;;;110.55;64.92;;;;;;;4.78;70.36;100973.69;1732926;80;25810;-75
2021/03/26 02:05:59;;;;;;;105.17;63.08;;;;;;;4.76;70.42;100976.85;1705969;82;25708;-75
2021/03/26 02:08:33;;;;;;;114.37;68.55;;;;;;;4.80;70.53;100970.97;1713075;83;26250;-76
2021/03/26 02:11:15;;;;;;;117.50;69.67;;;;;;;4.79;70.44;100970.62;1714249;81;25779;-76
2021/03/26 02:13:42;;;;;;;112.37;66.35;;;;;;;4.79;70.48;100976.63;1712491;81;25730;-75
2021/03/26 02:16:12;;;;;;;108.22;65.62;;;;;;;4.77;70.59;100975.91;1702743;82;25793;-75
2021/03/26 02:18:42;;;;;;;111.65;66.90;;;;;;;4.79;70.70;100970.62;1709696;82;25711;-75
2021/03/26 02:21:20;;;;;;;111.42;65.60;;;;;;;4.79;70.69;100971.45;1716350;81;25905;-72
2021/03/26 02:23:51;;;;;;;114.35;66.10;;;;;;;4.80;70.77;100977.00;1725878;81;25946;-72
2021/03/26 02:26:32;;;;;;;120.97;68.97;;;;;;;4.81;70.81;100973.46;1712226;83;25795;-72
2021/03/26 02:29:01;;;;;;;115.50;69.67;;;;;;;4.83;70.84;100969.48;1713318;81;25911;-73
2021/03/26 02:31:44;;;;;;;113.47;68.60;;;;;;;4.82;70.89;100972.52;1635175;85;25884;-73
2021/03/26 02:34:11;;;;;;;115.55;68.92;;;;;;;4.83;70.92;100975.48;1613648;86;25811;-73
2021/03/26 02:36:49;;;;;;;119.13;66.72;;;;;;;4.84;70.81;100979.70;1638146;86;26793;-73
2021/03/26 02:39:31;;;;;;;120.00;70.52;;;;;;;4.70;70.58;100986.84;1637628;85;25789;-73
2021/03/26 02:42:03;;;;;;;112.15;66.37;;;;;;;4.57;70.78;100985.60;1638649;85;26176;-72
2021/03/26 02:45:10;;;;;;;115.55;67.47;;;;;;;4.57;70.98;100979.95;1638565;86;26082;-73
2021/03/26 02:47:52;;;;;;;105.55;64.12;;;;;;;4.61;71.18;100972.34;1633284;86;25882;-73
2021/03/26 02:50:29;;;;;;;110.30;65.75;;;;;;;4.61;71.15;100969.75;1637064;86;25977;-77
2021/03/26 02:53:15;;;;;;;111.95;64.87;;;;;;;4.61;71.22;100970.19;1637349;86;25760;-75
2021/03/26 02:55:47;;;;;;;112.45;66.05;;;;;;;4.60;71.15;100973.73;1638628;86;26581;-76
2021/03/26 02:58:38;;;;;;;109.72;64.95;;;;;;;4.64;71.28;100980.35;1637186;86;25815;-76
2021/03/26 03:01:16;;;;;;;115.25;64.22;;;;;;;4.67;71.29;100979.66;1638472;86;26573;-76
2021/03/26 03:03:47;;;;;;;119.10;66.45;;;;;;;4.73;71.32;100974.49;1632076;86;25873;-76
2021/03/26 03:06:18;;;;;;;116.28;68.15;;;;;;;4.77;71.29;100972.50;1661659;83;26374;-76
2021/03/26 03:08:50;;;;;;;113.22;68.47;;;;;;;4.82;71.29;100975.10;1627472;87;26031;-76
2021/03/26 03:11:29;;;;;;;111.45;68.80;;;;;;;4.85;71.25;100980.53;1610146;87;25791;-75
2021/03/26 03:14:17;;;;;;;116.45;67.03;;;;;;;4.83;71.09;100979.84;1621269;87;26890;-76
2021/03/26 03:17:01;;;;;;;113.80;67.10;;;;;;;4.83;71.25;100978.55;1627502;86;25851;-75
2021/03/26 03:19:50;;;;;;;105.90;65.57;;;;;;;4.84;71.22;100975.00;1630569;86;25828;-75
2021/03/26 03:22:28;;;;;;;113.47;66.50;;;;;;;4.79;71.16;100971.45;1630692;87;25814;-76
2021/03/26 03:25:04;;;;;;;107.55;65.32;;;;;;;4.73;71.36;100971.91;1669863;84;25759;-76
2021/03/26 03:27:40;;;;;;;115.67;67.10;;;;;;;4.66;71.22;100981.05;1627719;85;26690;-76
2021/03/26 03:30:30;;;;;;;107.50;65.32;;;;;;;4.59;71.41;100980.67;1613268;86;25913;-76
2021/03/26 03:33:06;;;;;;;111.77;64.92;;;;;;;4.59;71.58;100970.32;1620204;86;25894;-77
2021/03/26 03:36:00;;;;;;;116.70;67.22;;;;;;;4.56;71.54;100974.91;1620232;86;25853;-76
2021/03/26 03:38:48;;;;;;;111.20;65.57;;;;;;;4.51;71.63;100978.29;1631721;85;25862;-75
2021/03/26 03:41:23;;;;;;;111.17;65.03;;;;;;;4.54;71.83;100971.59;1631397;86;26528;-76
2021/03/26 03:44:13;;;;;;;112.45;66.20;;;;;;;4.57;71.91;100970.89;1628842;86;25891;-76
2021/03/26 03:47:09;;;;;;;114.72;65.35;;;;;;;4.60;71.86;100975.84;1692824;82;25742;-72
2021/03/26 03:49:58;;;;;;;113.10;65.40;;;;;;;4.55;71.75;100982.30;1629749;86;26415;-73
2021/03/26 03:52:50;;;;;;;118.70;67.03;;;;;;;4.44;71.91;100985.17;1610557;87;26539;-71
2021/03/26 03:55:58;;;;;;;117.33;65.50;;;;;;;4.38;71.95;100983.03;1619989;87;25946;-71
2021/03/26 03:58:29;;;;;;;117.55;66.77;;;;;;;4.44;72.32;100992.13;1614443;88;25936;-72
2021/03/26 04:01:25;;;;;;;111.62;65.47;;;;;;;4.44;72.15;100986.47;1614282;87;25760;-76
2021/03/26 04:04:07;;;;;;;111.42;62.67;;;;;;;4.47;72.34;100975.07;1587485;87;25952;-76
2021/03/26 04:06:42;;;;;;;114.57;64.95;;;;;;;4.52;72.42;100988.52;1621091;87;26790;-76
2021/03/26 04:09:17;;;;;;;112.03;66.22;;;;;;;4.45;72.20;100992.50;1621799;87;26601;-76
2021/03/26 04:11:53;;;;;;;118.37;66.25;;;;;;;4.51;72.44;100998.52;1620365;87;26060;-76
2021/03/26 04:14:39;;;;;;;113.68;64.30;;;;;;;4.58;72.46;100993.27;1618070;86;25831;-76
2021/03/26 04:17:20;;;;;;;112.65;66.50;;;;;;;4.60;72.26;100993.14;1619447;87;25836;-76
2021/03/26 04:19:52;;;;;;;113.42;64.58;;;;;;;4.60;72.36;100987.97;1619063;87;25823;-76
2021/03/26 04:22:30;;;;;;;119.82;65.12;;;;;;;4.64;72.47;100995.89;1614891;87;26630;-76
2021/03/26 04:25:24;;;;;;;112.50;68.15;;;;;;;4.56;72.09;100998.20;1614081;87;25782;-75
2021/03/26 04:28:15;;;;;;;112.30;68.10;;;;;;;4.48;72.35;100994.05;1610884;87;25906;-76
2021/03/26 04:31:06;;;;;;;112.57;68.12;;;;;;;4.53;72.56;100986.30;1597810;87;26292;-76
2021/03/26 04:33:40;;;;;;;120.02;68.22;;;;;;;4.56;72.63;100986.08;1601737;87;25906;-76
2021/03/26 04:36:08;;;;;;;120.02;71.90;;;;;;;4.56;72.53;100986.55;1579314;87;27932;-76
2021/03/26 04:38:47;;;;;;;119.08;69.67;;;;;;;4.45;72.45;100992.02;1601868;87;26097;-76
2021/03/26 04:41:28;;;;;;;122.72;72.10;;;;;;;4.48;72.82;100988.87;1604701;86;25876;-76
2021/03/26 04:44:03;;;;;;;113.40;67.82;;;;;;;4.52;72.93;100988.98;1606155;87;25884;-76
2021/03/26 04:46:35;;;;;;;116.93;69.62;;;;;;;4.52;72.95;100985.11;1627529;86;26372;-76
2021/03/26 04:49:20;;;;;;;114.40;67.67;;;;;;;4.56;72.99;100997.73;1632413;86;25908;-76
2021/03/26 04:52:29;;;;;;;115.08;66.20;;;;;;;4.58;73.00;100994.56;1625650;86;26741;-73
2021/03/26 04:55:19;;;;;;;115.52;67.45;;;;;;;4.61;73.08;100994.78;1628913;86;26823;-73
2021/03/26 04:58:17;;;;;;;107.58;67.03;;;;;;;4.63;73.05;100996.80;1630767;86;25844;-72
2021/03/26 05:01:07;;;;;;;117.33;67.90;;;;;;;4.64;73.06;101001.88;1629245;86;25602;-72
2021/03/26 05:03:38;;;;;;;118.90;66.57;;;;;;;4.67;73.05;101000.84;1618254;86;25863;-72
2021/03/26 05:06:20;;;;;;;113.47;66.90;;;;;;;4.68;72.96;101005.89;1742527;80;25911;-75
2021/03/26 05:08:55;;;;;;;119.55;68.75;;;;;;;4.72;73.05;101005.66;1744444;80;25744;-75
2021/03/26 05:11:30;;;;;;;120.77;68.25;;;;;;;4.78;72.99;101009.13;1641833;85;26008;-75
2021/03/26 05:14:02;;;;;;;114.25;70.17;;;;;;;4.79;72.76;101018.53;1649351;84;25936;-72
2021/03/26 05:16:55;;;;;;;114.32;69.53;;;;;;;4.79;72.86;101009.00;1661221;84;26143;-78
2021/03/26 05:20:05;;;;;;;120.25;68.75;;;;;;;4.84;72.88;101012.08;1659909;84;25819;-76
2021/03/26 05:22:44;;;;;;;116.60;69.45;;;;;;;4.88;72.88;101013.97;1668868;84;25896;-76
2021/03/26 05:25:36;;;;;;;117.67;70.43;;;;;;;4.92;72.56;101023.66;1667390;84;25537;-73
2021/03/26 05:28:27;;;;;;;116.03;69.12;;;;;;;4.92;72.56;101023.66;1670842;84;25997;-76
2021/03/26 05:31:24;;;;;;;125.20;71.47;;;;;;;4.93;72.92;101025.30;1669659;84;26668;-75
2021/03/26 05:33:54;;;;;;;116.65;69.95;;;;;;;4.93;72.91;101020.94;1670202;84;25890;-76
2021/03/26 05:36:37;;;;;;;120.05;69.37;;;;;;;4.92;72.88;101021.06;1633415;84;35002;-76
2021/03/26 05:39:26;;;;;;;128.25;70.97;;;;;;;4.89;72.93;101024.70;1672275;84;25882;-76
2021/03/26 05:43:03;;;;;;;124.45;70.00;;;;;;;4.87;72.86;101030.46;1652758;84;25901;-76
2021/03/26 05:45:55;;;;;;;126.50;72.30;;;;;;;4.88;73.00;101030.36;1668857;84;26835;-76
2021/03/26 05:49:02;;;;;;;128.95;69.50;;;;;;;4.93;72.93;101031.30;1688424;81;25947;-76
2021/03/26 05:52:24;;;;;;;117.50;66.45;;;;;;;4.95;72.94;101033.80;1728414;81;25711;-75
2021/03/26 05:55:49;;;;;;;119.13;69.03;;;;;;;4.98;72.97;101034.39;1704942;81;26612;-76
2021/03/26 05:58:44;;;;;;;118.25;69.70;;;;;;;5.06;72.95;101039.02;1724971;81;26307;-76
2021/03/26 06:01:57;;;;;;;117.00;70.55;;;;;;;5.10;72.89;101045.61;1743253;81;26486;-76
2021/03/26 06:05:08;;;;;;;119.35;72.70;;;;;;;5.16;72.90;101041.77;1738431;81;26013;-75
2021/03/26 06:08:15;;;;;;;115.90;70.47;;;;;;;5.18;72.86;101035.98;1721526;82;25959;-76
2021/03/26 06:11:20;;;;;;;121.82;71.47;;;;;;;5.19;72.86;101046.24;1731951;80;25789;-75
2021/03/26 06:14:43;;;;;;;125.35;68.60;;;;;;;5.19;72.89;101048.84;1625846;86;25826;-76
2021/03/26 06:17:55;;;;;;;124.15;72.70;;;;;;;5.19;72.87;101050.61;1615436;87;25981;-74
2021/03/26 06:21:18;;;;;;;117.80;71.45;;;;;;;5.16;72.91;101049.06;1551895;90;25893;-76
2021/03/26 06:24:13;;;;;;;121.60;72.05;;;;;;;5.16;72.93;101055.55;1544819;90;26510;-77
2021/03/26 06:27:13;;;;;;;128.85;70.70;;;;;;;5.18;73.04;101045.05;1567246;89;25842;-74
2021/03/26 06:30:02;;;;;;;118.00;70.92;;;;;;;5.21;73.12;101049.56;1590596;88;25752;-76
2021/03/26 06:32:58;;;;;;;;;;;;;;;5.23;73.12;101055.42;1558553;89;26388;-75
2021/03/26 06:35:46;;;;;;;132.03;72.65;;;;;;;5.19;73.03;101058.38;1538124;90;25802;-75
2021/03/26 06:38:56;;;;;;;128.35;73.78;;;;;;;5.22;73.20;101060.74;1538742;90;25820;-75
2021/03/26 06:41:51;;;;;;;117.33;69.92;;;;;;;5.31;73.23;101067.83;1538462;90;26473;-76
2021/03/26 06:45:09;;;;;;;126.35;72.47;;;;;;;5.41;73.17;101064.09;1537864;91;25833;-76
2021/03/26 06:47:50;;;;;;;129.97;72.53;;;;;;;5.48;73.12;101060.94;1541836;88;25987;-75
2021/03/26 06:50:40;;;;;;;124.80;73.60;;;;;;;5.56;73.07;101063.78;1590091;88;26423;-76
2021/03/26 06:53:14;;;;;;;125.67;72.67;;;;;;;5.62;73.03;101070.27;1587351;88;25872;-76
2021/03/26 06:56:39;;;;;;;121.17;73.22;;;;;;;5.68;73.02;101071.58;1586468;87;25874;-77
2021/03/26 06:59:36;;;;;;;124.30;71.12;;;;;;;5.71;72.98;101077.35;1615270;86;25781;-76
2021/03/26 07:02:49;;;;;;;123.00;72.27;;;;;;;5.76;72.88;101085.61;1621121;86;25979;-76
2021/03/26 07:05:33;;;;;;;138.45;74.32;;;;;;;5.76;72.90;101086.09;1614942;87;26036;-75
2021/03/26 07:08:30;;;;;;;130.27;74.95;;;;;;;5.84;72.99;101082.89;1614264;87;25841;-75
2021/03/26 07:11:08;;;;;;;125.62;74.15;;;;;;;5.90;73.00;101081.16;1614906;87;25943;-75
2021/03/26 07:14:08;;;;;;;123.87;75.62;;;;;;;5.96;72.95;101085.90;1673713;84;25767;-75
2021/03/26 07:16:49;;;;;;;126.70;72.55;;;;;;;5.97;72.86;101082.34;1674626;84;25963;-76
2021/03/26 07:19:42;;;;;;;126.20;72.65;;;;;;;6.00;73.01;101082.11;1649158;85;25926;-75
2021/03/26 07:22:31;;;;;;;126.87;74.35;;;;;;;6.06;73.03;101084.26;1623718;85;25796;-75
2021/03/26 07:25:39;;;;;;;124.60;75.08;;;;;;;6.15;72.99;101077.53;1590782;88;26552;-75
2021/03/26 07:28:30;;;;;;;115.32;69.80;;;;;;;6.21;72.80;101075.75;1649430;84;25844;-75
2021/03/26 07:31:00;;;;;;;121.40;69.03;;;;;;;6.30;72.74;101075.50;1623431;86;25786;-74
2021/03/26 07:33:33;;;;;;;135.57;78.83;;;;;;;6.36;72.77;101074.56;1614995;87;25836;-76
2021/03/26 07:36:26;;;;;;;136.00;83.80;;;;;;;6.43;72.73;101072.30;1616035;87;25848;-75
2021/03/26 07:39:23;;;;;;;135.93;81.90;;;;;;;6.52;72.75;101074.64;1595778;88;25971;-74
2021/03/26 07:42:22;;;;;;;126.50;79.03;;;;;;;6.61;72.66;101076.53;1596579;88;25930;-75
2021/03/26 07:45:06;;;;;;;192.22;128.93;;;;;;;6.71;72.63;101081.80;1592319;88;25985;-75
2021/03/26 07:48:17;;;;;;;193.62;119.33;;;;;;;6.76;72.45;101083.09;1596854;88;25864;-75
2021/03/26 07:50:58;;;;;;;133.52;83.33;;;;;;;6.80;72.49;101080.61;1600187;88;25867;-75
2021/03/26 07:54:01;;;;;;;130.60;76.72;;;;;;;6.85;72.39;101078.47;1570420;90;25840;-75
2021/03/26 07:57:07;;;;;;;123.38;76.45;;;;;;;6.89;72.26;101084.24;1567329;90;26098;-75
2021/03/26 08:00:20;;;;;;;119.30;73.00;;;;;;;6.92;72.30;101080.09;1569521;89;25922;-75
2021/03/26 08:02:51;;;;;;;123.05;70.47;;;;;;;7.00;72.26;101086.80;1585770;88;25842;-75
2021/03/26 08:05:43;;;;;;;120.00;70.55;;;;;;;7.07;72.13;101084.55;1552143;90;26072;-75
2021/03/26 08:08:59;;;;;;;125.60;75.40;;;;;;;7.18;72.11;101095.38;1586993;88;25871;-75
2021/03/26 08:12:14;;;;;;;118.77;74.17;;;;;;;7.27;71.96;101092.83;1590497;88;25825;-75
2021/03/26 08:15:00;;;;;;;117.47;74.72;;;;;;;7.37;72.01;101092.92;1643932;85;26639;-75
2021/03/26 08:17:50;;;;;;;123.50;74.12;;;;;;;7.47;71.81;101087.28;1678978;83;25747;-75
2021/03/26 08:20:57;;;;;;;122.02;74.17;;;;;;;7.56;71.67;101090.44;1608752;86;35258;-75
2021/03/26 08:23:46;;;;;;;118.70;69.53;;;;;;;7.62;71.49;101089.11;1609720;87;25828;-75
2021/03/26 08:26:41;;;;;;;122.17;73.92;;;;;;;7.69;71.54;101090.25;1614788;87;25883;-76
2021/03/26 08:29:24;;;;;;;123.85;74.70;;;;;;;7.77;71.53;101092.19;1607390;87;26390;-74
2021/03/26 08:32:24;;;;;;;129.45;76.25;;;;;;;7.84;71.38;101089.92;1605884;87;26057;-75
2021/03/26 08:35:19;;;;;;;127.25;74.12;;;;;;;7.92;71.19;101099.20;1566284;89;25815;-76
2021/03/26 08:38:09;;;;;;;125.33;75.25;;;;;;;7.94;71.07;101103.33;1519424;92;26034;-75
2021/03/26 08:41:02;;;;;;;116.80;73.25;;;;;;;8.03;71.08;101100.91;1551774;90;25923;-76
2021/03/26 08:43:33;;;;;;;121.05;71.12;;;;;;;8.11;71.07;101102.38;1552649;90;26086;-74
2021/03/26 08:46:22;;;;;;;116.08;70.67;;;;;;;8.18;71.03;101104.33;1552284;90;26817;-74
2021/03/26 08:49:16;;;;;;;121.90;72.50;;;;;;;8.29;70.94;101110.38;1551295;90;25890;-74
2021/03/26 08:52:15;;;;;;;120.47;73.90;;;;;;;8.45;70.95;101107.66;1578189;87;25857;-75
2021/03/26 08:54:59;;;;;;;116.80;74.00;;;;;;;8.61;70.62;101115.45;1588244;87;26278;-74
2021/03/26 08:58:15;;;;;;;123.70;73.12;;;;;;;8.79;70.62;101121.67;1557332;90;25851;-75
2021/03/26 09:01:20;;;;;;;111.37;70.57;;;;;;;8.97;70.54;101120.52;1561990;89;26662;-75
2021/03/26 09:04:26;;;;;;;116.88;73.35;;;;;;;9.16;70.21;101119.70;1509411;93;25442;-74
2021/03/26 09:07:36;;;;;;;115.45;73.10;;;;;;;9.37;70.11;101120.06;1513331;93;25849;-74
2021/03/26 09:10:20;;;;;;;113.28;70.72;;;;;;;9.53;69.93;101119.84;1508437;92;25802;-74
2021/03/26 09:13:38;;;;;;;114.42;71.37;;;;;;;9.70;69.48;101116.17;1506601;92;26069;-74
2021/03/26 09:16:18;;;;;;;116.42;72.12;;;;;;;9.83;69.47;101116.69;1548884;89;25929;-75
2021/03/26 09:18:52;;;;;;;117.47;70.75;;;;;;;9.99;69.23;101120.84;1541981;91;25972;-77
2021/03/26 09:21:41;;;;;;;115.95;70.65;;;;;;;10.11;68.87;101115.44;1546682;90;25513;-75
2021/03/26 09:24:12;;;;;;;112.37;69.00;;;;;;;10.22;68.69;101116.06;1545428;90;25428;-77
2021/03/26 09:27:08;;;;;;;103.75;64.80;;;;;;;10.38;68.30;101114.67;1500221;91;25868;-76
2021/03/26 09:29:56;;;;;;;100.22;65.57;;;;;;;10.48;68.09;101118.06;1498965;94;25907;-76
2021/03/26 09:32:27;;;;;;;102.92;66.77;;;;;;;10.60;67.82;101120.80;1498122;93;26462;-76
2021/03/26 09:35:11;;;;;;;101.90;66.05;;;;;;;10.73;67.44;101121.77;1549933;89;25905;-75
2021/03/26 09:37:52;;;;;;;89.97;62.43;;;;;;;10.82;67.20;101126.10;1581225;89;25769;-76
2021/03/26 09:40:37;;;;;;;92.80;60.98;;;;;;;10.99;67.22;101115.80;1551624;90;27062;-76
2021/03/26 09:43:11;;;;;;;74.03;50.45;;;;;;;11.15;66.45;101120.38;1561329;89;25908;-72
2021/03/26 09:45:52;;;;;;;69.67;46.88;;;;;;;11.26;67.47;101117.52;1600328;86;26082;-72
2021/03/26 09:48:56;;;;;;;81.42;54.90;;;;;;;11.70;69.60;101113.13;1629460;85;25927;-74
2021/03/26 09:52:01;;;;;;;87.30;57.00;;;;;;;12.27;67.62;101110.00;1632036;85;25847;-75
2021/03/26 09:54:40;;;;;;;80.80;56.40;;;;;;;12.32;64.92;101106.42;1551273;89;26684;-73
2021/03/26 09:57:47;;;;;;;91.30;53.80;;;;;;;12.28;64.70;101110.36;1573181;89;25977;-73
2021/03/26 10:00:51;;;;;;;69.00;46.50;;;;;;;12.33;63.91;101106.78;1559041;90;25569;-73
2021/03/26 10:03:48;;;;;;;73.52;48.63;;;;;;;12.36;62.33;101108.27;1566853;87;45051;-72
2021/03/26 10:06:41;;;;;;;77.10;48.33;;;;;;;12.37;62.53;101103.34;1607674;86;25785;-74
2021/03/26 10:09:27;;;;;;;70.20;48.15;;;;;;;12.46;62.26;101104.19;1601903;87;25862;-74
2021/03/26 10:12:04;;;;;;;65.37;46.88;;;;;;;12.52;61.35;101096.98;1557452;90;26534;-72
2021/03/26 10:14:39;;;;;;;69.30;48.40;;;;;;;12.57;61.06;101100.77;1579252;89;25826;-72
2021/03/26 10:17:30;;;;;;;66.25;44.15;;;;;;;12.63;60.41;101105.40;1578995;88;25921;-72
2021/03/26 10:20:02;;;;;;;57.55;41.88;;;;;;;12.72;60.49;101097.55;1595991;87;26661;-73
2021/03/26 10:22:50;;;;;;;58.87;41.68;;;;;;;12.82;59.83;101095.58;1586084;88;25702;-73
2021/03/26 10:25:43;;;;;;;61.33;41.73;;;;;;;12.86;58.31;101098.23;1593223;87;25707;-73
2021/03/26 10:28:18;;;;;;;59.35;39.35;;;;;;;12.90;59.21;101094.28;1531357;90;26044;-73
2021/03/26 10:30:49;;;;;;;58.65;39.85;;;;;;;13.03;58.85;101092.50;1571535;89;25886;-74
2021/03/26 10:33:18;;;;;;;58.42;40.08;;;;;;;13.17;57.86;101093.16;1581187;88;25844;-73
2021/03/26 10:36:40;;;;;;;54.33;37.58;;;;;;;13.27;58.38;101091.23;1548143;86;25979;-73
2021/03/26 10:39:33;;;;;;;56.95;39.92;;;;;;;13.36;57.69;101088.09;1628590;86;25954;-73
2021/03/26 10:42:14;;;;;;;61.00;40.20;;;;;;;13.49;57.54;101092.36;1664221;84;26671;-73
2021/03/26 10:45:09;;;;;;;59.83;42.50;;;;;;;13.55;57.13;101089.06;1669733;84;25862;-73
2021/03/26 10:47:51;;;;;;;60.70;45.60;;;;;;;13.58;57.22;101084.47;1668025;84;25801;-74
2021/03/26 10:50:35;;;;;;;59.55;43.13;;;;;;;13.62;56.78;101086.61;1660567;84;26774;-73
2021/03/26 10:53:09;;;;;;;65.03;46.02;;;;;;;13.62;56.58;101085.30;1645968;84;25940;-73
2021/03/26 10:55:51;;;;;;;67.12;44.50;;;;;;;13.58;56.04;101083.97;1661920;84;25837;-73
2021/03/26 10:58:42;;;;;;;58.80;44.35;;;;;;;13.51;55.60;101086.45;1662845;84;25868;-73
2021/03/26 11:01:18;;;;;;;69.72;49.20;;;;;;;13.43;56.02;101077.27;1650625;84;26014;-72
2021/03/26 11:04:17;;;;;;;64.67;46.10;;;;;;;13.37;55.36;101080.56;1663120;84;26502;-73
2021/03/26 11:06:55;;;;;;;65.90;46.65;;;;;;;13.31;55.68;101078.58;1661274;84;25845;-72
2021/03/26 11:09:41;;;;;;;60.10;44.77;;;;;;;13.24;55.18;101076.27;1636931;85;26683;-73
2021/03/26 11:12:37;;;;;;;66.02;45.10;;;;;;;13.17;55.24;101080.03;1664464;83;25758;-72
2021/03/26 11:15:17;;;;;;;66.40;46.25;;;;;;;13.11;55.60;101075.45;1671830;83;25794;-73
2021/03/26 11:18:21;;;;;;;71.37;47.93;;;;;;;13.08;55.46;101075.78;1665944;84;25786;-73
2021/03/26 11:21:01;;;;;;;64.12;47.73;;;;;;;13.05;54.58;101068.23;1663818;84;26413;-72
2021/03/26 11:23:37;;;;;;;74.50;49.45;;;;;;;12.98;55.50;101071.17;1670877;84;25894;-73
2021/03/26 11:26:16;;;;;;;59.83;42.40;;;;;;;12.99;55.97;101072.34;1674179;82;26095;-73
2021/03/26 11:28:54;;;;;;;55.28;38.25;;;;;;;12.97;54.78;101071.67;1652873;82;25883;-73
2021/03/26 11:31:48;;;;;;;49.18;36.90;;;;;;;12.97;54.79;101072.98;1698263;82;25807;-73
2021/03/26 11:35:01;;;;;;;58.08;36.70;;;;;;;12.98;54.80;101070.67;1706828;82;25936;-73
2021/03/26 11:37:38;;;;;;;51.35;37.73;;;;;;;12.94;54.37;101065.44;1689160;82;25763;-72
2021/03/26 11:40:26;;;;;;;52.53;38.80;;;;;;;12.92;53.95;101063.95;1686183;83;25757;-72
2021/03/26 11:43:30;;;;;;;49.48;36.10;;;;;;;12.90;53.67;101068.05;1685408;83;25897;-73
2021/03/26 11:46:01;;;;;;;42.93;33.48;;;;;;;12.90;53.24;101065.42;1680186;83;25756;-72
2021/03/26 11:49:14;;;;;;;46.75;33.88;;;;;;;12.86;53.47;101064.12;1658032;84;25821;-73
2021/03/26 11:52:00;;;;;;;46.80;32.03;;;;;;;12.85;53.35;101064.61;1637304;85;25953;-73
2021/03/26 11:54:55;;;;;;;43.05;32.00;;;;;;;12.82;52.28;101064.09;1650677;84;25782;-74
2021/03/26 11:57:45;;;;;;;43.42;31.93;;;;;;;12.78;52.79;101057.55;1665352;84;25951;-74
2021/03/26 12:00:22;;;;;;;45.12;32.83;;;;;;;12.76;52.78;101057.70;1695493;82;25749;-74
2021/03/26 12:03:21;;;;;;;44.53;30.77;;;;;;;12.75;52.53;101059.19;1705049;82;25847;-76
2021/03/26 12:06:14;;;;;;;;;;;;;;;12.72;52.47;101051.15;1707417;82;25812;-75
2021/03/26 12:09:03;;;;;;;46.00;30.20;;;;;;;12.70;52.42;101054.91;1706831;82;25791;-75
2021/03/26 12:11:41;;;;;;;46.08;30.90;;;;;;;12.68;52.84;101044.57;1681214;82;25889;-74
2021/03/26 12:14:28;;;;;;;46.20;33.40;;;;;;;12.68;52.51;101043.76;1669982;84;26646;-74
2021/03/26 12:17:09;;;;;;;45.78;32.28;;;;;;;12.66;52.27;101042.62;1680197;83;26506;-75
2021/03/26 12:19:37;;;;;;;52.13;32.42;;;;;;;12.65;52.80;101048.34;1665085;83;26493;-72
2021/03/26 12:22:23;;;;;;;47.98;32.98;;;;;;;12.70;52.98;101044.42;1660252;84;26244;-72
2021/03/26 12:25:04;;;;;;;57.48;35.58;;;;;;;12.75;52.87;101044.27;1655674;84;25739;-72
2021/03/26 12:27:50;;;;;;;49.03;33.60;;;;;;;12.77;52.55;101040.19;1646689;84;26707;-72
2021/03/26 12:30:28;;;;;;;51.25;34.90;;;;;;;12.76;52.84;101039.83;1641391;85;26635;-72